Heathrow, Florida
Current Conditions -  °F | °C
As of 8:53 AM on Tuesday 21 Oct 2014 (Local Time) from KSFB Reporting Station
Clear Clear  
Wind Chill: 72°   Ceiling: Unl
Heat Index: 72°   Visibility: 10mi
Dew Point: 69°   Wind: 0mph
Humidity: 91%   Direction: NA
Pressure: 29.97"   Gusts: NA
Location:  28.7595°N, 81.3431°W
Report Text: KSFB 211253Z 00000KT 10SM CLR 22/21 A2997 RMK AO2 SLP148 T02220206
Loading
Personal Weather Stations






























Interactive Weather Map
Tropical Storm Tracking
New forecast layout! Learn more

10-Day Weather Forecast

Advertisements
Track Severe Weather on mobile